sensor_id;sensor_type;location;lat;lon;timestamp;P1;durP1;ratioP1;P2;durP2;ratioP2
3922;SDS011;1976;51.694;6.256;2023-03-14T00:01:22;4.63;;;1.97;;
3922;SDS011;1976;51.694;6.256;2023-03-14T00:03:48;1.60;;;1.50;;
3922;SDS011;1976;51.694;6.256;2023-03-14T00:06:15;4.17;;;2.40;;
3922;SDS011;1976;51.694;6.256;2023-03-14T00:08:41;2.93;;;1.57;;
3922;SDS011;1976;51.694;6.256;2023-03-14T00:11:09;5.43;;;2.10;;
3922;SDS011;1976;51.694;6.256;2023-03-14T00:13:36;4.40;;;1.87;;
3922;SDS011;1976;51.694;6.256;2023-03-14T00:16:05;2.30;;;1.40;;
3922;SDS011;1976;51.694;6.256;2023-03-14T00:18:36;5.60;;;1.53;;
3922;SDS011;1976;51.694;6.256;2023-03-14T00:21:02;2.40;;;1.43;;
3922;SDS011;1976;51.694;6.256;2023-03-14T00:23:29;7.10;;;2.10;;
3922;SDS011;1976;51.694;6.256;2023-03-14T00:25:59;4.73;;;2.40;;
3922;SDS011;1976;51.694;6.256;2023-03-14T00:28:27;5.43;;;2.80;;
3922;SDS011;1976;51.694;6.256;2023-03-14T00:30:53;4.40;;;1.93;;
3922;SDS011;1976;51.694;6.256;2023-03-14T00:33:20;1.63;;;1.20;;
3922;SDS011;1976;51.694;6.256;2023-03-14T00:36:19;7.00;;;2.10;;
3922;SDS011;1976;51.694;6.256;2023-03-14T00:38:39;9.13;;;2.80;;
3922;SDS011;1976;51.694;6.256;2023-03-14T00:41:07;5.00;;;1.90;;
3922;SDS011;1976;51.694;6.256;2023-03-14T00:43:35;5.33;;;1.93;;
3922;SDS011;1976;51.694;6.256;2023-03-14T00:46:01;8.93;;;1.73;;
3922;SDS011;1976;51.694;6.256;2023-03-14T00:48:27;7.33;;;2.37;;
3922;SDS011;1976;51.694;6.256;2023-03-14T00:50:52;7.37;;;2.20;;
3922;SDS011;1976;51.694;6.256;2023-03-14T00:53:18;5.70;;;1.57;;
3922;SDS011;1976;51.694;6.256;2023-03-14T00:55:44;4.53;;;1.47;;
3922;SDS011;1976;51.694;6.256;2023-03-14T00:58:10;2.60;;;1.40;;
3922;SDS011;1976;51.694;6.256;2023-03-14T01:00:37;2.90;;;1.30;;
3922;SDS011;1976;51.694;6.256;2023-03-14T01:03:03;6.57;;;1.57;;
3922;SDS011;1976;51.694;6.256;2023-03-14T01:05:29;14.53;;;1.83;;
3922;SDS011;1976;51.694;6.256;2023-03-14T01:07:55;11.30;;;1.60;;
3922;SDS011;1976;51.694;6.256;2023-03-14T01:10:21;6.63;;;1.87;;
3922;SDS011;1976;51.694;6.256;2023-03-14T01:12:47;7.00;;;1.73;;
3922;SDS011;1976;51.694;6.256;2023-03-14T01:15:12;2.43;;;1.40;;
3922;SDS011;1976;51.694;6.256;2023-03-14T01:17:38;2.33;;;1.50;;
3922;SDS011;1976;51.694;6.256;2023-03-14T01:20:05;4.77;;;2.30;;
3922;SDS011;1976;51.694;6.256;2023-03-14T01:22:34;7.20;;;1.90;;
3922;SDS011;1976;51.694;6.256;2023-03-14T01:25:01;4.23;;;1.10;;
3922;SDS011;1976;51.694;6.256;2023-03-14T01:27:27;2.90;;;1.83;;
3922;SDS011;1976;51.694;6.256;2023-03-14T01:29:52;4.27;;;1.70;;
3922;SDS011;1976;51.694;6.256;2023-03-14T01:32:18;8.43;;;1.60;;
3922;SDS011;1976;51.694;6.256;2023-03-14T01:34:43;2.47;;;1.80;;
3922;SDS011;1976;51.694;6.256;2023-03-14T01:37:09;2.80;;;1.70;;
3922;SDS011;1976;51.694;6.256;2023-03-14T01:39:36;4.10;;;1.77;;
3922;SDS011;1976;51.694;6.256;2023-03-14T01:42:03;1.63;;;1.30;;
3922;SDS011;1976;51.694;6.256;2023-03-14T01:44:46;2.30;;;1.23;;
3922;SDS011;1976;51.694;6.256;2023-03-14T01:47:12;3.73;;;1.33;;
3922;SDS011;1976;51.694;6.256;2023-03-14T01:49:38;21.30;;;1.70;;
3922;SDS011;1976;51.694;6.256;2023-03-14T01:52:10;3.37;;;1.40;;
3922;SDS011;1976;51.694;6.256;2023-03-14T01:54:41;4.73;;;1.00;;
3922;SDS011;1976;51.694;6.256;2023-03-14T02:00:09;5.10;;;1.47;;
3922;SDS011;1976;51.694;6.256;2023-03-14T02:02:39;4.43;;;1.60;;
3922;SDS011;1976;51.694;6.256;2023-03-14T02:05:05;2.47;;;1.40;;
3922;SDS011;1976;51.694;6.256;2023-03-14T02:07:42;2.50;;;0.90;;
3922;SDS011;1976;51.694;6.256;2023-03-14T02:10:14;2.00;;;1.23;;
3922;SDS011;1976;51.694;6.256;2023-03-14T02:12:43;6.17;;;1.87;;
3922;SDS011;1976;51.694;6.256;2023-03-14T02:15:11;2.67;;;1.40;;
3922;SDS011;1976;51.694;6.256;2023-03-14T02:17:37;1.70;;;1.00;;
3922;SDS011;1976;51.694;6.256;2023-03-14T02:22:37;12.13;;;1.13;;
3922;SDS011;1976;51.694;6.256;2023-03-14T02:25:08;5.70;;;1.30;;
3922;SDS011;1976;51.694;6.256;2023-03-14T02:27:52;3.60;;;1.40;;
3922;SDS011;1976;51.694;6.256;2023-03-14T02:30:22;4.63;;;2.00;;
3922;SDS011;1976;51.694;6.256;2023-03-14T02:32:52;1.00;;;0.90;;
3922;SDS011;1976;51.694;6.256;2023-03-14T02:35:22;3.80;;;1.40;;
3922;SDS011;1976;51.694;6.256;2023-03-14T02:37:55;1.70;;;1.33;;
3922;SDS011;1976;51.694;6.256;2023-03-14T02:40:28;5.23;;;1.53;;
3922;SDS011;1976;51.694;6.256;2023-03-14T02:42:53;1.67;;;1.10;;
3922;SDS011;1976;51.694;6.256;2023-03-14T02:45:25;7.50;;;1.50;;
3922;SDS011;1976;51.694;6.256;2023-03-14T02:48:00;4.37;;;1.60;;
3922;SDS011;1976;51.694;6.256;2023-03-14T02:50:50;6.10;;;2.37;;
3922;SDS011;1976;51.694;6.256;2023-03-14T02:53:20;3.90;;;1.47;;
3922;SDS011;1976;51.694;6.256;2023-03-14T02:55:49;7.90;;;1.70;;
3922;SDS011;1976;51.694;6.256;2023-03-14T02:58:16;6.30;;;1.70;;
3922;SDS011;1976;51.694;6.256;2023-03-14T03:00:42;3.23;;;1.60;;
3922;SDS011;1976;51.694;6.256;2023-03-14T03:03:08;7.50;;;1.60;;
3922;SDS011;1976;51.694;6.256;2023-03-14T03:05:34;12.27;;;2.43;;
3922;SDS011;1976;51.694;6.256;2023-03-14T03:08:00;2.40;;;1.60;;
3922;SDS011;1976;51.694;6.256;2023-03-14T03:10:26;12.80;;;2.80;;
3922;SDS011;1976;51.694;6.256;2023-03-14T03:12:52;1.53;;;1.43;;
3922;SDS011;1976;51.694;6.256;2023-03-14T03:15:18;7.80;;;1.83;;
3922;SDS011;1976;51.694;6.256;2023-03-14T03:17:44;5.67;;;1.70;;
3922;SDS011;1976;51.694;6.256;2023-03-14T03:20:10;1.67;;;1.57;;
3922;SDS011;1976;51.694;6.256;2023-03-14T03:22:36;7.33;;;1.87;;
3922;SDS011;1976;51.694;6.256;2023-03-14T03:25:05;2.90;;;1.57;;
3922;SDS011;1976;51.694;6.256;2023-03-14T03:27:33;3.43;;;1.20;;
3922;SDS011;1976;51.694;6.256;2023-03-14T03:29:59;5.60;;;1.33;;
3922;SDS011;1976;51.694;6.256;2023-03-14T03:32:25;3.00;;;1.80;;
3922;SDS011;1976;51.694;6.256;2023-03-14T03:34:51;1.67;;;1.53;;
3922;SDS011;1976;51.694;6.256;2023-03-14T03:37:17;1.53;;;1.33;;
3922;SDS011;1976;51.694;6.256;2023-03-14T03:39:43;12.17;;;2.13;;
3922;SDS011;1976;51.694;6.256;2023-03-14T03:42:09;9.60;;;1.90;;
3922;SDS011;1976;51.694;6.256;2023-03-14T03:44:35;6.10;;;1.50;;
3922;SDS011;1976;51.694;6.256;2023-03-14T03:47:01;2.80;;;1.50;;
3922;SDS011;1976;51.694;6.256;2023-03-14T03:49:30;3.53;;;1.80;;
3922;SDS011;1976;51.694;6.256;2023-03-14T03:51:56;1.70;;;1.47;;
3922;SDS011;1976;51.694;6.256;2023-03-14T03:54:22;1.73;;;1.50;;
3922;SDS011;1976;51.694;6.256;2023-03-14T03:56:48;1.40;;;1.30;;
3922;SDS011;1976;51.694;6.256;2023-03-14T03:59:13;7.57;;;3.10;;
3922;SDS011;1976;51.694;6.256;2023-03-14T04:01:39;5.70;;;2.10;;
3922;SDS011;1976;51.694;6.256;2023-03-14T04:04:05;11.20;;;2.27;;
3922;SDS011;1976;51.694;6.256;2023-03-14T04:06:30;3.37;;;1.60;;
3922;SDS011;1976;51.694;6.256;2023-03-14T04:08:56;4.80;;;1.53;;
3922;SDS011;1976;51.694;6.256;2023-03-14T04:11:22;1.30;;;1.20;;
3922;SDS011;1976;51.694;6.256;2023-03-14T04:13:47;2.97;;;1.63;;
3922;SDS011;1976;51.694;6.256;2023-03-14T04:16:17;2.70;;;1.30;;
3922;SDS011;1976;51.694;6.256;2023-03-14T04:18:48;3.07;;;1.97;;
3922;SDS011;1976;51.694;6.256;2023-03-14T04:21:14;2.17;;;1.60;;
3922;SDS011;1976;51.694;6.256;2023-03-14T04:23:39;24.13;;;1.90;;
3922;SDS011;1976;51.694;6.256;2023-03-14T04:26:05;3.53;;;1.87;;
3922;SDS011;1976;51.694;6.256;2023-03-14T04:28:31;10.63;;;1.43;;
3922;SDS011;1976;51.694;6.256;2023-03-14T04:30:57;4.53;;;1.77;;
3922;SDS011;1976;51.694;6.256;2023-03-14T04:33:22;7.90;;;1.50;;
3922;SDS011;1976;51.694;6.256;2023-03-14T04:35:48;1.00;;;0.87;;
3922;SDS011;1976;51.694;6.256;2023-03-14T04:38:18;2.87;;;1.00;;
3922;SDS011;1976;51.694;6.256;2023-03-14T04:40:44;2.47;;;1.10;;
3922;SDS011;1976;51.694;6.256;2023-03-14T04:43:10;5.27;;;1.53;;
3922;SDS011;1976;51.694;6.256;2023-03-14T04:45:37;1.57;;;0.93;;
3922;SDS011;1976;51.694;6.256;2023-03-14T04:48:06;3.77;;;2.30;;
3922;SDS011;1976;51.694;6.256;2023-03-14T04:50:32;1.90;;;1.30;;
3922;SDS011;1976;51.694;6.256;2023-03-14T04:52:57;0.80;;;0.80;;
3922;SDS011;1976;51.694;6.256;2023-03-14T04:55:23;7.13;;;1.90;;
3922;SDS011;1976;51.694;6.256;2023-03-14T04:57:49;0.90;;;0.90;;
3922;SDS011;1976;51.694;6.256;2023-03-14T05:00:14;3.10;;;1.70;;
3922;SDS011;1976;51.694;6.256;2023-03-14T05:02:43;1.03;;;0.93;;
3922;SDS011;1976;51.694;6.256;2023-03-14T05:05:09;0.80;;;0.80;;
3922;SDS011;1976;51.694;6.256;2023-03-14T05:07:35;1.00;;;1.00;;
3922;SDS011;1976;51.694;6.256;2023-03-14T05:10:00;1.90;;;1.50;;
3922;SDS011;1976;51.694;6.256;2023-03-14T05:12:26;1.17;;;1.00;;
3922;SDS011;1976;51.694;6.256;2023-03-14T05:14:52;1.17;;;0.80;;
3922;SDS011;1976;51.694;6.256;2023-03-14T05:17:17;5.27;;;2.03;;
3922;SDS011;1976;51.694;6.256;2023-03-14T05:19:43;0.70;;;0.70;;
3922;SDS011;1976;51.694;6.256;2023-03-14T05:22:09;0.80;;;0.77;;
3922;SDS011;1976;51.694;6.256;2023-03-14T05:24:35;4.00;;;1.10;;
3922;SDS011;1976;51.694;6.256;2023-03-14T05:27:01;1.47;;;1.00;;
3922;SDS011;1976;51.694;6.256;2023-03-14T05:29:27;1.03;;;1.03;;
3922;SDS011;1976;51.694;6.256;2023-03-14T05:31:53;4.00;;;1.00;;
3922;SDS011;1976;51.694;6.256;2023-03-14T05:34:18;0.80;;;0.80;;
3922;SDS011;1976;51.694;6.256;2023-03-14T05:36:44;1.67;;;1.07;;
3922;SDS011;1976;51.694;6.256;2023-03-14T05:39:09;4.20;;;0.93;;
3922;SDS011;1976;51.694;6.256;2023-03-14T05:41:35;3.53;;;1.60;;
3922;SDS011;1976;51.694;6.256;2023-03-14T05:44:01;3.67;;;1.33;;
3922;SDS011;1976;51.694;6.256;2023-03-14T05:46:26;2.07;;;1.30;;
3922;SDS011;1976;51.694;6.256;2023-03-14T05:48:52;5.33;;;1.47;;
3922;SDS011;1976;51.694;6.256;2023-03-14T05:51:18;2.03;;;1.83;;
3922;SDS011;1976;51.694;6.256;2023-03-14T05:53:43;1.10;;;1.10;;
3922;SDS011;1976;51.694;6.256;2023-03-14T05:56:09;3.37;;;1.93;;
3922;SDS011;1976;51.694;6.256;2023-03-14T05:58:34;1.60;;;1.50;;
3922;SDS011;1976;51.694;6.256;2023-03-14T06:01:01;2.13;;;1.63;;
3922;SDS011;1976;51.694;6.256;2023-03-14T06:03:31;1.10;;;1.00;;
3922;SDS011;1976;51.694;6.256;2023-03-14T06:05:57;1.17;;;1.07;;
3922;SDS011;1976;51.694;6.256;2023-03-14T06:08:23;2.10;;;1.47;;
3922;SDS011;1976;51.694;6.256;2023-03-14T06:10:49;5.30;;;1.07;;
3922;SDS011;1976;51.694;6.256;2023-03-14T06:13:15;1.73;;;1.63;;
3922;SDS011;1976;51.694;6.256;2023-03-14T06:15:41;2.20;;;1.97;;
3922;SDS011;1976;51.694;6.256;2023-03-14T06:18:07;1.67;;;1.57;;
3922;SDS011;1976;51.694;6.256;2023-03-14T06:20:35;2.73;;;1.73;;
3922;SDS011;1976;51.694;6.256;2023-03-14T06:23:03;1.70;;;1.60;;
3922;SDS011;1976;51.694;6.256;2023-03-14T06:25:30;6.47;;;1.77;;
3922;SDS011;1976;51.694;6.256;2023-03-14T06:27:56;1.50;;;1.27;;
3922;SDS011;1976;51.694;6.256;2023-03-14T06:30:21;1.60;;;1.50;;
3922;SDS011;1976;51.694;6.256;2023-03-14T06:32:47;2.30;;;1.50;;
3922;SDS011;1976;51.694;6.256;2023-03-14T06:35:13;10.43;;;1.87;;
3922;SDS011;1976;51.694;6.256;2023-03-14T06:37:38;2.30;;;1.70;;
3922;SDS011;1976;51.694;6.256;2023-03-14T06:40:04;1.60;;;1.50;;
3922;SDS011;1976;51.694;6.256;2023-03-14T06:42:32;3.33;;;1.70;;
3922;SDS011;1976;51.694;6.256;2023-03-14T06:44:58;1.17;;;1.10;;
3922;SDS011;1976;51.694;6.256;2023-03-14T06:47:23;1.10;;;1.10;;
3922;SDS011;1976;51.694;6.256;2023-03-14T06:49:49;2.10;;;1.13;;
3922;SDS011;1976;51.694;6.256;2023-03-14T06:52:15;4.73;;;1.87;;
3922;SDS011;1976;51.694;6.256;2023-03-14T06:54:40;4.00;;;1.87;;
3922;SDS011;1976;51.694;6.256;2023-03-14T06:57:06;2.50;;;2.07;;
3922;SDS011;1976;51.694;6.256;2023-03-14T06:59:32;1.73;;;1.63;;
3922;SDS011;1976;51.694;6.256;2023-03-14T07:01:57;1.60;;;1.13;;
3922;SDS011;1976;51.694;6.256;2023-03-14T07:04:23;5.13;;;1.30;;
3922;SDS011;1976;51.694;6.256;2023-03-14T07:06:49;2.20;;;2.00;;
3922;SDS011;1976;51.694;6.256;2023-03-14T07:09:14;6.50;;;2.13;;
3922;SDS011;1976;51.694;6.256;2023-03-14T07:11:42;1.20;;;1.20;;
3922;SDS011;1976;51.694;6.256;2023-03-14T07:14:08;2.00;;;1.57;;
3922;SDS011;1976;51.694;6.256;2023-03-14T07:16:33;2.60;;;1.43;;
3922;SDS011;1976;51.694;6.256;2023-03-14T07:18:59;5.43;;;1.63;;
3922;SDS011;1976;51.694;6.256;2023-03-14T07:21:26;1.00;;;1.00;;
3922;SDS011;1976;51.694;6.256;2023-03-14T07:23:52;1.20;;;1.20;;
3922;SDS011;1976;51.694;6.256;2023-03-14T07:26:17;2.30;;;1.30;;
3922;SDS011;1976;51.694;6.256;2023-03-14T07:28:43;2.40;;;1.60;;
3922;SDS011;1976;51.694;6.256;2023-03-14T07:31:09;3.13;;;2.33;;
3922;SDS011;1976;51.694;6.256;2023-03-14T07:33:35;3.57;;;1.60;;
3922;SDS011;1976;51.694;6.256;2023-03-14T07:36:00;4.17;;;2.53;;
3922;SDS011;1976;51.694;6.256;2023-03-14T07:38:26;4.70;;;2.90;;
3922;SDS011;1976;51.694;6.256;2023-03-14T07:41:02;6.80;;;2.40;;
3922;SDS011;1976;51.694;6.256;2023-03-14T07:43:29;3.50;;;2.00;;
3922;SDS011;1976;51.694;6.256;2023-03-14T07:45:55;2.40;;;2.20;;
3922;SDS011;1976;51.694;6.256;2023-03-14T07:48:21;3.77;;;1.90;;
3922;SDS011;1976;51.694;6.256;2023-03-14T07:50:49;1.83;;;1.70;;
3922;SDS011;1976;51.694;6.256;2023-03-14T07:53:16;2.90;;;2.40;;
3922;SDS011;1976;51.694;6.256;2023-03-14T07:55:43;2.30;;;2.10;;
3922;SDS011;1976;51.694;6.256;2023-03-14T07:58:08;4.77;;;2.93;;
3922;SDS011;1976;51.694;6.256;2023-03-14T08:00:34;4.77;;;2.30;;
3922;SDS011;1976;51.694;6.256;2023-03-14T08:03:00;4.20;;;2.67;;
3922;SDS011;1976;51.694;6.256;2023-03-14T08:05:26;2.20;;;2.00;;
3922;SDS011;1976;51.694;6.256;2023-03-14T08:07:52;3.40;;;2.13;;
3922;SDS011;1976;51.694;6.256;2023-03-14T08:10:17;2.57;;;1.80;;
3922;SDS011;1976;51.694;6.256;2023-03-14T08:12:47;1.60;;;1.43;;
3922;SDS011;1976;51.694;6.256;2023-03-14T08:15:18;6.10;;;2.23;;
3922;SDS011;1976;51.694;6.256;2023-03-14T08:17:44;0.60;;;0.60;;
3922;SDS011;1976;51.694;6.256;2023-03-14T08:20:10;0.70;;;0.70;;
3922;SDS011;1976;51.694;6.256;2023-03-14T08:22:36;0.60;;;0.60;;
3922;SDS011;1976;51.694;6.256;2023-03-14T08:25:03;0.60;;;0.60;;
3922;SDS011;1976;51.694;6.256;2023-03-14T08:27:29;0.70;;;0.70;;
3922;SDS011;1976;51.694;6.256;2023-03-14T08:29:55;0.60;;;0.60;;
3922;SDS011;1976;51.694;6.256;2023-03-14T08:32:20;0.60;;;0.60;;
3922;SDS011;1976;51.694;6.256;2023-03-14T08:34:48;0.60;;;0.60;;
3922;SDS011;1976;51.694;6.256;2023-03-14T08:37:14;0.60;;;0.60;;
3922;SDS011;1976;51.694;6.256;2023-03-14T08:39:40;0.60;;;0.60;;
3922;SDS011;1976;51.694;6.256;2023-03-14T08:42:05;0.60;;;0.60;;
3922;SDS011;1976;51.694;6.256;2023-03-14T08:44:31;0.60;;;0.60;;
3922;SDS011;1976;51.694;6.256;2023-03-14T08:46:57;0.60;;;0.60;;
3922;SDS011;1976;51.694;6.256;2023-03-14T08:49:22;0.60;;;0.60;;
3922;SDS011;1976;51.694;6.256;2023-03-14T08:51:48;0.60;;;0.60;;
3922;SDS011;1976;51.694;6.256;2023-03-14T08:54:14;0.60;;;0.60;;
3922;SDS011;1976;51.694;6.256;2023-03-14T08:56:39;0.60;;;0.60;;
3922;SDS011;1976;51.694;6.256;2023-03-14T08:59:05;0.60;;;0.60;;
3922;SDS011;1976;51.694;6.256;2023-03-14T09:01:31;0.60;;;0.60;;
3922;SDS011;1976;51.694;6.256;2023-03-14T09:03:57;0.60;;;0.60;;
3922;SDS011;1976;51.694;6.256;2023-03-14T09:06:23;0.70;;;0.70;;
3922;SDS011;1976;51.694;6.256;2023-03-14T09:08:48;0.60;;;0.60;;
3922;SDS011;1976;51.694;6.256;2023-03-14T09:11:14;0.70;;;0.70;;
3922;SDS011;1976;51.694;6.256;2023-03-14T09:13:40;0.60;;;0.60;;
3922;SDS011;1976;51.694;6.256;2023-03-14T09:16:06;0.60;;;0.60;;
3922;SDS011;1976;51.694;6.256;2023-03-14T09:18:32;0.70;;;0.70;;
3922;SDS011;1976;51.694;6.256;2023-03-14T09:20:58;0.60;;;0.60;;
3922;SDS011;1976;51.694;6.256;2023-03-14T09:23:23;0.60;;;0.60;;
3922;SDS011;1976;51.694;6.256;2023-03-14T09:25:54;0.60;;;0.60;;
3922;SDS011;1976;51.694;6.256;2023-03-14T09:28:20;0.70;;;0.70;;
3922;SDS011;1976;51.694;6.256;2023-03-14T09:30:45;0.70;;;0.70;;
3922;SDS011;1976;51.694;6.256;2023-03-14T09:33:11;0.60;;;0.60;;
3922;SDS011;1976;51.694;6.256;2023-03-14T09:35:37;0.60;;;0.60;;
3922;SDS011;1976;51.694;6.256;2023-03-14T09:38:03;0.60;;;0.60;;
3922;SDS011;1976;51.694;6.256;2023-03-14T09:40:31;0.70;;;0.70;;
3922;SDS011;1976;51.694;6.256;2023-03-14T09:43:02;0.70;;;0.70;;
3922;SDS011;1976;51.694;6.256;2023-03-14T09:45:29;0.60;;;0.60;;
3922;SDS011;1976;51.694;6.256;2023-03-14T09:47:59;0.60;;;0.60;;
3922;SDS011;1976;51.694;6.256;2023-03-14T09:50:30;0.70;;;0.70;;
3922;SDS011;1976;51.694;6.256;2023-03-14T09:53:18;0.70;;;0.70;;
3922;SDS011;1976;51.694;6.256;2023-03-14T09:55:46;0.70;;;0.70;;
3922;SDS011;1976;51.694;6.256;2023-03-14T09:58:19;0.70;;;0.70;;
3922;SDS011;1976;51.694;6.256;2023-03-14T10:00:46;0.60;;;0.60;;
3922;SDS011;1976;51.694;6.256;2023-03-14T10:05:39;0.63;;;0.63;;
3922;SDS011;1976;51.694;6.256;2023-03-14T10:08:06;0.60;;;0.60;;
3922;SDS011;1976;51.694;6.256;2023-03-14T10:10:34;0.60;;;0.60;;
3922;SDS011;1976;51.694;6.256;2023-03-14T10:15:38;0.60;;;0.60;;
3922;SDS011;1976;51.694;6.256;2023-03-14T10:18:05;0.60;;;0.60;;
3922;SDS011;1976;51.694;6.256;2023-03-14T10:20:43;0.60;;;0.60;;
3922;SDS011;1976;51.694;6.256;2023-03-14T10:25:37;0.60;;;0.60;;
3922;SDS011;1976;51.694;6.256;2023-03-14T10:28:11;0.60;;;0.60;;
3922;SDS011;1976;51.694;6.256;2023-03-14T10:31:02;0.60;;;0.60;;
3922;SDS011;1976;51.694;6.256;2023-03-14T10:33:32;0.70;;;0.70;;
3922;SDS011;1976;51.694;6.256;2023-03-14T10:36:19;0.70;;;0.70;;
3922;SDS011;1976;51.694;6.256;2023-03-14T10:38:47;0.60;;;0.60;;
3922;SDS011;1976;51.694;6.256;2023-03-14T10:41:18;0.60;;;0.60;;
3922;SDS011;1976;51.694;6.256;2023-03-14T10:43:50;0.63;;;0.63;;
3922;SDS011;1976;51.694;6.256;2023-03-14T10:46:18;0.60;;;0.60;;
3922;SDS011;1976;51.694;6.256;2023-03-14T10:48:45;0.60;;;0.60;;
3922;SDS011;1976;51.694;6.256;2023-03-14T10:53:44;0.60;;;0.60;;
3922;SDS011;1976;51.694;6.256;2023-03-14T10:56:17;0.60;;;0.60;;
3922;SDS011;1976;51.694;6.256;2023-03-14T10:58:45;0.70;;;0.70;;
3922;SDS011;1976;51.694;6.256;2023-03-14T11:04:09;0.60;;;0.60;;
3922;SDS011;1976;51.694;6.256;2023-03-14T11:12:22;0.60;;;0.60;;
3922;SDS011;1976;51.694;6.256;2023-03-14T11:14:54;0.60;;;0.60;;
3922;SDS011;1976;51.694;6.256;2023-03-14T11:17:27;0.60;;;0.60;;
3922;SDS011;1976;51.694;6.256;2023-03-14T11:23:16;0.60;;;0.60;;
3922;SDS011;1976;51.694;6.256;2023-03-14T11:28:36;0.60;;;0.60;;
3922;SDS011;1976;51.694;6.256;2023-03-14T11:34:07;0.60;;;0.60;;
3922;SDS011;1976;51.694;6.256;2023-03-14T11:36:48;0.67;;;0.67;;
3922;SDS011;1976;51.694;6.256;2023-03-14T11:39:19;0.60;;;0.60;;
3922;SDS011;1976;51.694;6.256;2023-03-14T11:41:49;0.60;;;0.60;;
3922;SDS011;1976;51.694;6.256;2023-03-14T11:44:22;0.60;;;0.60;;
3922;SDS011;1976;51.694;6.256;2023-03-14T11:46:53;0.70;;;0.70;;
3922;SDS011;1976;51.694;6.256;2023-03-14T11:51:52;0.60;;;0.60;;
3922;SDS011;1976;51.694;6.256;2023-03-14T12:11:01;0.60;;;0.60;;
3922;SDS011;1976;51.694;6.256;2023-03-14T12:13:40;0.60;;;0.60;;
3922;SDS011;1976;51.694;6.256;2023-03-14T12:21:54;0.60;;;0.60;;
3922;SDS011;1976;51.694;6.256;2023-03-14T12:24:31;0.60;;;0.60;;
3922;SDS011;1976;51.694;6.256;2023-03-14T12:27:02;0.60;;;0.60;;
3922;SDS011;1976;51.694;6.256;2023-03-14T12:29:30;0.60;;;0.60;;
3922;SDS011;1976;51.694;6.256;2023-03-14T12:32:09;0.60;;;0.60;;
3922;SDS011;1976;51.694;6.256;2023-03-14T12:34:48;0.60;;;0.60;;
3922;SDS011;1976;51.694;6.256;2023-03-14T12:37:23;0.60;;;0.60;;
3922;SDS011;1976;51.694;6.256;2023-03-14T12:40:20;0.60;;;0.60;;
3922;SDS011;1976;51.694;6.256;2023-03-14T12:42:59;0.83;;;0.83;;
3922;SDS011;1976;51.694;6.256;2023-03-14T12:45:27;0.60;;;0.60;;
3922;SDS011;1976;51.694;6.256;2023-03-14T12:50:36;0.60;;;0.60;;
3922;SDS011;1976;51.694;6.256;2023-03-14T12:58:31;0.60;;;0.57;;
3922;SDS011;1976;51.694;6.256;2023-03-14T13:01:34;0.60;;;0.57;;
3922;SDS011;1976;51.694;6.256;2023-03-14T13:04:09;0.50;;;0.50;;
3922;SDS011;1976;51.694;6.256;2023-03-14T13:06:46;0.50;;;0.50;;
3922;SDS011;1976;51.694;6.256;2023-03-14T13:12:03;0.60;;;0.60;;
3922;SDS011;1976;51.694;6.256;2023-03-14T13:14:40;0.57;;;0.50;;
3922;SDS011;1976;51.694;6.256;2023-03-14T13:17:12;0.60;;;0.50;;
3922;SDS011;1976;51.694;6.256;2023-03-14T13:19:39;0.60;;;0.50;;
3922;SDS011;1976;51.694;6.256;2023-03-14T13:22:06;0.60;;;0.50;;
3922;SDS011;1976;51.694;6.256;2023-03-14T13:24:45;0.60;;;0.60;;
3922;SDS011;1976;51.694;6.256;2023-03-14T13:27:17;0.50;;;0.50;;
3922;SDS011;1976;51.694;6.256;2023-03-14T13:29:45;0.50;;;0.50;;
3922;SDS011;1976;51.694;6.256;2023-03-14T13:32:22;0.50;;;0.50;;
3922;SDS011;1976;51.694;6.256;2023-03-14T13:34:55;0.50;;;0.50;;
3922;SDS011;1976;51.694;6.256;2023-03-14T13:37:21;0.50;;;0.50;;
3922;SDS011;1976;51.694;6.256;2023-03-14T13:39:49;0.50;;;0.50;;
3922;SDS011;1976;51.694;6.256;2023-03-14T13:42:16;0.50;;;0.50;;
3922;SDS011;1976;51.694;6.256;2023-03-14T13:44:43;0.50;;;0.50;;
3922;SDS011;1976;51.694;6.256;2023-03-14T13:47:16;0.50;;;0.50;;
3922;SDS011;1976;51.694;6.256;2023-03-14T13:49:44;0.50;;;0.50;;
3922;SDS011;1976;51.694;6.256;2023-03-14T13:55:04;0.50;;;0.50;;
3922;SDS011;1976;51.694;6.256;2023-03-14T13:57:51;0.50;;;0.50;;
3922;SDS011;1976;51.694;6.256;2023-03-14T14:02:54;7.53;;;2.30;;
3922;SDS011;1976;51.694;6.256;2023-03-14T14:05:22;11.80;;;2.17;;
3922;SDS011;1976;51.694;6.256;2023-03-14T14:07:50;11.20;;;2.20;;
3922;SDS011;1976;51.694;6.256;2023-03-14T14:10:17;8.33;;;1.70;;
3922;SDS011;1976;51.694;6.256;2023-03-14T14:12:51;12.73;;;2.00;;
3922;SDS011;1976;51.694;6.256;2023-03-14T14:15:25;5.10;;;1.40;;
3922;SDS011;1976;51.694;6.256;2023-03-14T14:17:52;7.13;;;1.77;;
3922;SDS011;1976;51.694;6.256;2023-03-14T14:22:45;6.77;;;1.67;;
3922;SDS011;1976;51.694;6.256;2023-03-14T14:25:14;8.20;;;2.20;;
3922;SDS011;1976;51.694;6.256;2023-03-14T14:27:41;5.13;;;1.50;;
3922;SDS011;1976;51.694;6.256;2023-03-14T14:32:43;6.87;;;2.20;;
3922;SDS011;1976;51.694;6.256;2023-03-14T14:35:32;4.60;;;1.73;;
3922;SDS011;1976;51.694;6.256;2023-03-14T14:37:59;4.80;;;1.40;;
3922;SDS011;1976;51.694;6.256;2023-03-14T14:40:26;8.30;;;1.70;;
3922;SDS011;1976;51.694;6.256;2023-03-14T14:42:55;2.93;;;1.17;;
3922;SDS011;1976;51.694;6.256;2023-03-14T14:45:27;5.90;;;1.70;;
3922;SDS011;1976;51.694;6.256;2023-03-14T14:48:14;9.57;;;1.53;;
3922;SDS011;1976;51.694;6.256;2023-03-14T14:50:48;5.00;;;1.53;;
3922;SDS011;1976;51.694;6.256;2023-03-14T14:55:53;2.67;;;1.27;;
3922;SDS011;1976;51.694;6.256;2023-03-14T14:58:27;8.30;;;1.50;;
3922;SDS011;1976;51.694;6.256;2023-03-14T15:03:25;18.17;;;2.33;;
3922;SDS011;1976;51.694;6.256;2023-03-14T15:05:53;4.37;;;1.63;;
3922;SDS011;1976;51.694;6.256;2023-03-14T15:08:20;3.83;;;1.93;;
3922;SDS011;1976;51.694;6.256;2023-03-14T15:10:46;4.33;;;1.60;;
3922;SDS011;1976;51.694;6.256;2023-03-14T15:13:11;6.90;;;1.63;;
3922;SDS011;1976;51.694;6.256;2023-03-14T15:15:37;5.77;;;2.00;;
3922;SDS011;1976;51.694;6.256;2023-03-14T15:18:08;4.03;;;1.43;;
3922;SDS011;1976;51.694;6.256;2023-03-14T15:20:38;1.97;;;1.50;;
3922;SDS011;1976;51.694;6.256;2023-03-14T15:23:08;2.40;;;1.40;;
3922;SDS011;1976;51.694;6.256;2023-03-14T15:25:39;4.10;;;1.53;;
3922;SDS011;1976;51.694;6.256;2023-03-14T15:28:11;9.07;;;1.47;;
3922;SDS011;1976;51.694;6.256;2023-03-14T15:30:45;4.93;;;1.40;;
3922;SDS011;1976;51.694;6.256;2023-03-14T15:33:12;7.30;;;2.00;;
3922;SDS011;1976;51.694;6.256;2023-03-14T15:35:38;2.23;;;1.07;;
3922;SDS011;1976;51.694;6.256;2023-03-14T15:38:08;12.00;;;1.33;;
3922;SDS011;1976;51.694;6.256;2023-03-14T15:40:38;2.17;;;1.30;;
3922;SDS011;1976;51.694;6.256;2023-03-14T15:43:04;7.10;;;1.60;;
3922;SDS011;1976;51.694;6.256;2023-03-14T15:45:30;3.10;;;1.57;;
3922;SDS011;1976;51.694;6.256;2023-03-14T15:47:56;5.77;;;1.60;;
3922;SDS011;1976;51.694;6.256;2023-03-14T15:50:22;16.83;;;1.77;;
3922;SDS011;1976;51.694;6.256;2023-03-14T15:52:48;8.77;;;1.77;;
3922;SDS011;1976;51.694;6.256;2023-03-14T15:55:13;4.20;;;1.70;;
3922;SDS011;1976;51.694;6.256;2023-03-14T15:57:43;5.57;;;1.50;;
3922;SDS011;1976;51.694;6.256;2023-03-14T16:00:13;7.13;;;1.73;;
3922;SDS011;1976;51.694;6.256;2023-03-14T16:02:42;5.30;;;1.93;;
3922;SDS011;1976;51.694;6.256;2023-03-14T16:05:09;10.13;;;1.70;;
3922;SDS011;1976;51.694;6.256;2023-03-14T16:07:35;4.40;;;1.67;;
3922;SDS011;1976;51.694;6.256;2023-03-14T16:10:01;6.73;;;1.77;;
3922;SDS011;1976;51.694;6.256;2023-03-14T16:12:28;7.03;;;1.73;;
3922;SDS011;1976;51.694;6.256;2023-03-14T16:14:54;11.00;;;1.70;;
3922;SDS011;1976;51.694;6.256;2023-03-14T16:17:19;11.43;;;1.70;;
3922;SDS011;1976;51.694;6.256;2023-03-14T16:19:45;5.20;;;1.83;;
3922;SDS011;1976;51.694;6.256;2023-03-14T16:22:11;7.47;;;1.60;;
3922;SDS011;1976;51.694;6.256;2023-03-14T16:24:37;14.93;;;2.00;;
3922;SDS011;1976;51.694;6.256;2023-03-14T16:27:02;4.83;;;1.93;;
3922;SDS011;1976;51.694;6.256;2023-03-14T16:29:29;8.30;;;2.00;;
3922;SDS011;1976;51.694;6.256;2023-03-14T16:31:55;4.13;;;1.57;;
3922;SDS011;1976;51.694;6.256;2023-03-14T16:34:20;7.20;;;2.30;;
3922;SDS011;1976;51.694;6.256;2023-03-14T16:36:46;6.00;;;1.83;;
3922;SDS011;1976;51.694;6.256;2023-03-14T16:39:12;4.63;;;1.30;;
3922;SDS011;1976;51.694;6.256;2023-03-14T16:41:38;9.73;;;2.10;;
3922;SDS011;1976;51.694;6.256;2023-03-14T16:44:03;6.57;;;1.93;;
3922;SDS011;1976;51.694;6.256;2023-03-14T16:46:29;6.53;;;1.20;;